createdAt,value
2023-03-23T15:58:15.646Z,8.82
2023-03-23T15:59:12.675Z,7.82
2023-03-23T16:00:10.056Z,9.60
2023-03-23T16:01:19.590Z,8.77
2023-03-23T16:02:24.213Z,12.18
2023-03-23T16:03:27.807Z,12.05
2023-03-23T16:04:24.724Z,7.38
2023-03-23T16:05:21.603Z,10.73
2023-03-23T16:06:24.339Z,11.55
2023-03-23T16:07:23.923Z,10.32
2023-03-23T16:08:20.817Z,10.20
2023-03-23T16:09:19.822Z,13.15
2023-03-23T16:10:19.408Z,8.60
2023-03-23T16:11:18.388Z,9.07
2023-03-23T16:12:15.105Z,10.35
2023-03-23T16:13:11.941Z,14.63
2023-03-23T16:14:08.759Z,9.77
2023-03-23T16:15:06.244Z,10.00
2023-03-23T16:16:05.054Z,8.85
2023-03-23T16:17:01.678Z,10.27
2023-03-23T16:17:59.007Z,11.38
2023-03-23T16:18:56.045Z,9.57
2023-03-23T16:19:52.778Z,9.70
2023-03-23T16:20:50.254Z,13.98
2023-03-23T16:21:46.880Z,12.48
2023-03-23T16:22:43.813Z,11.25
2023-03-23T16:23:41.417Z,10.30
2023-03-23T16:24:38.545Z,13.38
2023-03-23T16:25:35.513Z,11.25
2023-03-23T16:26:32.262Z,10.30
2023-03-23T16:27:28.887Z,12.43
2023-03-23T16:28:25.700Z,8.55
2023-03-23T16:29:40.112Z,9.85
2023-03-23T16:30:40.870Z,11.18
2023-03-23T16:31:37.464Z,9.63
2023-03-23T16:33:29.558Z,10.93
2023-03-23T16:34:29.018Z,9.50
2023-03-23T16:35:26.306Z,10.27
2023-03-23T16:36:22.972Z,12.85
2023-03-23T16:37:19.569Z,9.30
2023-03-23T16:38:17.616Z,9.80
2023-03-23T16:39:15.933Z,12.00
2023-03-23T16:40:13.640Z,9.52
2023-03-23T16:41:13.157Z,12.68
2023-03-23T16:42:09.899Z,9.55
2023-03-23T16:43:08.628Z,12.65
2023-03-23T16:44:06.848Z,12.07
2023-03-23T16:45:03.826Z,9.48
2023-03-23T16:46:00.439Z,11.32
2023-03-23T16:46:57.172Z,10.35
2023-03-23T16:47:55.987Z,11.38
2023-03-23T16:48:52.634Z,11.52
2023-03-23T16:49:51.066Z,12.02
2023-03-23T16:50:47.681Z,10.70
2023-03-23T16:51:44.303Z,10.80
2023-03-23T16:52:46.527Z,15.60
2023-03-23T16:53:43.365Z,11.20
2023-03-23T16:54:39.983Z,12.73
2023-03-23T16:55:39.534Z,9.20
2023-03-23T16:56:36.236Z,14.65
2023-03-23T16:57:35.903Z,9.95
2023-03-23T16:58:32.612Z,12.70
2023-03-23T16:59:29.366Z,8.88
2023-03-23T17:00:27.260Z,11.80
2023-03-23T17:01:24.067Z,15.27
2023-03-23T17:02:20.782Z,13.00
2023-03-23T17:03:19.405Z,12.15
2023-03-23T17:04:16.181Z,9.40
2023-03-23T17:05:14.536Z,14.48
2023-03-23T17:06:11.299Z,11.60
2023-03-23T17:07:07.963Z,11.82
2023-03-23T17:08:05.929Z,14.27
2023-03-23T17:09:02.542Z,11.25
2023-03-23T17:10:00.527Z,10.25
2023-03-23T17:10:57.394Z,10.25
2023-03-23T17:11:54.821Z,12.38
2023-03-23T17:12:51.404Z,12.75
2023-03-23T17:13:48.495Z,9.90
2023-03-23T17:14:45.292Z,9.55
2023-03-23T17:15:46.018Z,11.25
2023-03-23T17:16:43.685Z,13.77
2023-03-23T17:17:40.409Z,14.80
2023-03-23T17:18:37.100Z,10.20
2023-03-23T17:19:34.252Z,10.93
2023-03-23T17:20:31.536Z,14.55
2023-03-23T17:21:28.135Z,9.95
2023-03-23T17:22:25.759Z,11.98
2023-03-23T17:23:22.908Z,11.63
2023-03-23T17:24:20.505Z,14.23
2023-03-23T17:25:17.189Z,14.80
2023-03-23T17:26:13.817Z,9.75
2023-03-23T17:27:11.463Z,11.45
2023-03-23T17:28:08.072Z,10.73
2023-03-23T17:29:05.399Z,12.13
2023-03-23T17:30:03.957Z,10.57
2023-03-23T17:31:00.578Z,10.50
2023-03-23T17:31:57.237Z,10.10
2023-03-23T17:32:54.718Z,10.45
2023-03-23T17:33:52.792Z,14.85
2023-03-23T17:34:49.588Z,11.27
2023-03-23T17:35:47.636Z,11.45
2023-03-23T17:36:44.676Z,13.52
2023-03-23T17:37:41.686Z,12.23
2023-03-23T17:38:38.345Z,12.85
2023-03-23T17:39:43.292Z,13.25
2023-03-23T17:40:40.696Z,15.18
2023-03-23T17:41:37.377Z,12.27
2023-03-23T17:42:34.356Z,12.98
2023-03-23T17:43:31.635Z,13.25
2023-03-23T17:44:28.410Z,13.75
2023-03-23T17:45:25.078Z,12.63
2023-03-23T17:46:21.823Z,10.73
2023-03-23T17:47:18.666Z,11.23
2023-03-23T17:48:15.328Z,11.07
2023-03-23T17:49:12.080Z,13.18
2023-03-23T17:50:11.813Z,17.08
2023-03-23T17:51:09.288Z,21.52
2023-03-23T17:52:05.943Z,18.45
2023-03-23T17:53:03.215Z,15.43
2023-03-23T17:53:59.807Z,13.63
2023-03-23T17:54:56.382Z,11.48
2023-03-23T17:55:53.545Z,12.98
2023-03-23T17:56:50.286Z,10.00
2023-03-23T17:57:47.179Z,11.05
2023-03-23T17:58:43.792Z,13.18
2023-03-23T17:59:40.500Z,11.45
2023-03-23T18:00:37.717Z,14.15
2023-03-23T18:01:34.580Z,12.23
2023-03-23T18:02:31.295Z,12.02
2023-03-23T18:03:28.088Z,10.75
2023-03-23T18:04:27.029Z,9.73
2023-03-23T18:05:24.644Z,12.43
2023-03-23T18:06:21.385Z,14.82
2023-03-23T18:07:23.411Z,11.20
2023-03-23T18:08:20.042Z,12.13
2023-03-23T18:09:16.636Z,11.38
2023-03-23T18:10:13.402Z,11.63
2023-03-23T18:11:12.924Z,12.93
2023-03-23T18:12:09.573Z,10.85
2023-03-23T18:13:07.873Z,10.73
2023-03-23T18:14:04.632Z,12.75
2023-03-23T18:15:01.287Z,14.65
2023-03-23T18:15:58.227Z,12.57
2023-03-23T18:16:55.476Z,12.35
2023-03-23T18:17:52.330Z,14.02
2023-03-23T18:18:49.306Z,15.27
2023-03-23T18:19:46.714Z,12.27
2023-03-23T18:20:43.408Z,13.32
2023-03-23T18:21:40.113Z,13.55
2023-03-23T18:22:37.121Z,15.25
2023-03-23T18:23:39.101Z,13.88
2023-03-23T18:24:39.984Z,14.13
2023-03-23T18:25:37.923Z,20.48
2023-03-23T18:26:34.931Z,18.27
2023-03-23T18:27:32.362Z,15.50
2023-03-23T18:28:29.272Z,16.30
2023-03-23T18:29:25.939Z,14.27
2023-03-23T18:30:23.924Z,13.18
2023-03-23T18:31:21.295Z,16.15
2023-03-23T18:32:19.790Z,16.27
2023-03-23T18:33:19.063Z,17.35
2023-03-23T18:34:17.204Z,14.70
2023-03-23T18:35:14.098Z,20.25
2023-03-23T18:36:11.236Z,14.38
2023-03-23T18:37:08.268Z,16.10
2023-03-23T18:38:04.908Z,14.63
2023-03-23T18:39:01.832Z,14.63
2023-03-23T18:39:58.752Z,16.70
2023-03-23T18:40:55.682Z,11.98
2023-03-23T18:41:52.326Z,12.73
2023-03-23T18:42:49.256Z,12.57
2023-03-23T18:43:46.626Z,15.38
2023-03-23T18:44:43.215Z,13.65
2023-03-23T18:45:40.333Z,18.65
2023-03-23T18:46:37.454Z,15.00
2023-03-23T18:47:34.267Z,12.57
2023-03-23T18:48:31.250Z,13.52
2023-03-23T18:49:29.080Z,10.48
2023-03-23T18:50:25.981Z,14.40
2023-03-23T18:51:22.954Z,12.05
2023-03-23T18:52:19.582Z,14.05
2023-03-23T18:53:16.669Z,14.40
2023-03-23T18:54:13.534Z,12.10
2023-03-23T18:55:10.577Z,14.20
2023-03-23T18:56:13.291Z,12.00
2023-03-23T18:57:12.118Z,16.60
2023-03-23T18:58:08.905Z,12.35
2023-03-23T18:59:06.487Z,18.13
2023-03-23T19:00:04.726Z,13.93
2023-03-23T19:01:07.221Z,12.60
2023-03-23T19:03:01.475Z,11.05
2023-03-23T19:03:58.233Z,13.77
2023-03-23T19:04:54.921Z,11.13
2023-03-23T19:05:51.493Z,14.15
2023-03-23T19:06:49.610Z,11.98
2023-03-23T19:07:46.390Z,11.02
2023-03-23T19:08:43.374Z,13.63
2023-03-23T19:09:43.773Z,11.48
2023-03-23T19:10:42.649Z,18.50
2023-03-23T19:11:39.313Z,16.38
2023-03-23T19:12:36.133Z,14.55
2023-03-23T19:13:37.543Z,14.63
2023-03-23T19:14:36.591Z,12.68
2023-03-23T19:15:33.286Z,13.80
2023-03-23T19:16:32.900Z,15.38
2023-03-23T19:17:29.709Z,13.85
2023-03-23T19:18:26.380Z,13.50
2023-03-23T19:19:24.909Z,12.65
2023-03-23T19:20:57.335Z,14.68
2023-03-23T19:21:47.035Z,11.10
2023-03-23T19:22:43.952Z,14.02
2023-03-23T19:23:41.561Z,17.30
2023-03-23T19:24:38.543Z,15.35
2023-03-23T19:25:35.181Z,14.70
2023-03-23T19:26:37.672Z,13.27
2023-03-23T19:29:15.443Z,14.35
2023-03-23T19:29:50.729Z,14.27
2023-03-23T19:30:52.521Z,13.05
2023-03-23T19:31:49.460Z,16.25
2023-03-23T19:32:46.124Z,14.00
2023-03-23T19:33:43.716Z,13.60
2023-03-23T19:34:40.872Z,14.02
2023-03-23T19:35:37.662Z,11.25
2023-03-23T19:36:35.646Z,16.38
2023-03-23T19:37:34.730Z,16.98
2023-03-23T19:38:31.765Z,18.00
2023-03-23T19:39:28.386Z,14.85
2023-03-23T19:40:39.564Z,13.13
2023-03-23T19:41:37.611Z,14.75
2023-03-23T19:42:34.594Z,13.02
2023-03-23T19:43:31.341Z,11.25
2023-03-23T19:44:28.847Z,12.27
2023-03-23T19:45:25.855Z,11.60
2023-03-23T19:46:22.668Z,11.70
2023-03-23T19:47:19.313Z,13.60
2023-03-23T19:48:17.440Z,11.75
2023-03-23T19:49:14.757Z,13.57
2023-03-23T19:50:11.525Z,13.40
2023-03-23T19:51:09.776Z,10.90
2023-03-23T19:52:12.717Z,11.35
2023-03-23T19:53:10.706Z,12.50
2023-03-23T19:54:07.998Z,10.82
2023-03-23T19:55:04.989Z,11.57
2023-03-23T19:56:03.589Z,10.10
2023-03-23T19:57:01.254Z,11.00
2023-03-23T19:57:57.924Z,13.02
2023-03-23T19:58:54.753Z,11.27
2023-03-23T19:59:51.716Z,11.90
2023-03-23T20:00:48.855Z,11.75
2023-03-23T20:01:45.518Z,11.38
2023-03-23T20:02:42.391Z,11.68
2023-03-23T20:03:39.647Z,11.98
2023-03-23T20:04:36.484Z,8.52
2023-03-23T20:05:35.172Z,10.73
2023-03-23T20:06:31.930Z,12.57
2023-03-23T20:07:28.699Z,11.13
2023-03-23T20:08:25.978Z,15.15
2023-03-23T20:09:22.706Z,10.85
2023-03-23T20:10:19.437Z,11.40
2023-03-23T20:11:18.652Z,10.70
2023-03-23T20:12:16.168Z,16.08
2023-03-23T20:13:13.821Z,11.70
2023-03-23T20:14:11.865Z,9.98
2023-03-23T20:15:08.842Z,10.43
2023-03-23T20:16:06.881Z,11.57
2023-03-23T20:17:05.693Z,12.30
2023-03-23T20:18:02.777Z,11.13
2023-03-23T20:19:00.340Z,12.98
2023-03-23T20:19:57.419Z,14.70
2023-03-23T20:21:04.777Z,12.35
2023-03-23T20:22:02.389Z,10.95
2023-03-23T20:22:59.183Z,15.40
2023-03-23T20:23:58.511Z,22.88
2023-03-23T20:24:55.287Z,13.70
2023-03-23T20:25:52.191Z,11.25
2023-03-23T20:26:48.984Z,12.77
2023-03-23T20:27:46.551Z,11.70
2023-03-23T20:28:43.744Z,10.30
2023-03-23T20:29:40.682Z,14.65
2023-03-23T20:30:38.248Z,13.65
2023-03-23T20:31:38.412Z,12.95
2023-03-23T20:32:37.360Z,12.50
2023-03-23T20:33:35.519Z,15.10
2023-03-23T20:34:32.167Z,9.50
2023-03-23T20:35:29.521Z,9.60
2023-03-23T20:36:29.725Z,15.25
2023-03-23T20:37:27.100Z,11.55
2023-03-23T20:38:27.435Z,14.50
2023-03-23T20:39:25.498Z,11.18
2023-03-23T20:40:22.221Z,12.45
2023-03-23T20:41:20.766Z,10.77
2023-03-23T20:42:17.597Z,11.00
2023-03-23T20:43:14.282Z,11.90
2023-03-23T20:44:16.075Z,13.00
2023-03-23T20:45:13.401Z,13.30
2023-03-23T20:46:12.522Z,12.88
2023-03-23T20:47:09.645Z,11.70
2023-03-23T20:48:06.373Z,11.75
2023-03-23T20:49:05.385Z,12.05
2023-03-23T20:50:02.178Z,12.35
2023-03-23T20:51:00.497Z,10.85
2023-03-23T20:51:57.368Z,11.30
2023-03-23T20:52:54.561Z,15.05
2023-03-23T20:53:51.734Z,10.85
2023-03-23T20:54:50.805Z,14.20
2023-03-23T20:55:47.560Z,11.48
2023-03-23T20:56:45.968Z,13.13
2023-03-23T20:57:43.336Z,11.40
2023-03-23T20:58:40.968Z,12.38
2023-03-23T20:59:37.679Z,15.95
2023-03-23T21:00:34.354Z,13.75
2023-03-23T21:01:33.230Z,13.77
2023-03-23T21:02:30.190Z,10.30
2023-03-23T21:03:29.249Z,11.10
2023-03-23T21:04:27.519Z,12.27
2023-03-23T21:05:24.790Z,13.23
2023-03-23T21:06:21.708Z,13.55
2023-03-23T21:07:19.108Z,12.60
2023-03-23T21:08:18.266Z,15.00
2023-03-23T21:09:17.422Z,16.00
2023-03-23T21:10:14.287Z,13.57
2023-03-23T21:11:18.293Z,12.18
2023-03-23T21:12:14.965Z,11.38
2023-03-23T21:13:14.674Z,13.75
2023-03-23T21:14:11.918Z,13.95
2023-03-23T21:15:08.585Z,11.02
2023-03-23T21:16:06.021Z,14.52
2023-03-23T21:17:03.899Z,12.20
2023-03-23T21:18:01.071Z,12.18
2023-03-23T21:18:57.683Z,14.18
2023-03-23T21:19:54.370Z,11.13
2023-03-23T21:20:51.028Z,12.32
2023-03-23T21:21:56.364Z,13.68
2023-03-23T21:22:53.877Z,15.85
2023-03-23T21:23:53.017Z,18.02
2023-03-23T21:24:52.774Z,15.38
2023-03-23T21:25:49.413Z,12.85
2023-03-23T21:26:46.039Z,11.95
2023-03-23T21:27:42.746Z,11.35
2023-03-23T21:28:39.382Z,13.25
2023-03-23T21:29:36.086Z,12.95
2023-03-23T21:30:33.048Z,11.80
2023-03-23T21:31:33.055Z,12.05
2023-03-23T21:32:29.887Z,12.85
2023-03-23T21:33:26.648Z,13.80
2023-03-23T21:34:23.422Z,15.27
2023-03-23T21:35:20.378Z,14.35
2023-03-23T21:36:17.055Z,13.70
2023-03-23T21:37:15.169Z,12.77
2023-03-23T21:38:14.431Z,13.88
2023-03-23T21:39:11.176Z,16.40
2023-03-23T21:40:13.601Z,15.50
2023-03-23T21:42:09.236Z,15.90
2023-03-23T21:43:05.880Z,13.10
2023-03-23T21:44:10.246Z,16.77
2023-03-23T21:45:07.886Z,14.52
2023-03-23T21:46:06.064Z,15.20
2023-03-23T21:47:03.225Z,12.95
2023-03-23T21:48:00.261Z,15.25
2023-03-23T21:48:58.848Z,15.18
2023-03-23T21:49:56.653Z,16.73
2023-03-23T21:50:54.019Z,14.82
2023-03-23T21:51:50.912Z,14.30
2023-03-23T21:52:51.007Z,15.45
2023-03-23T21:53:47.921Z,15.55
2023-03-23T21:54:45.690Z,16.08
2023-03-23T21:55:43.615Z,20.58
2023-03-23T21:56:40.301Z,14.82
2023-03-23T21:57:37.246Z,15.82
2023-03-23T21:58:34.583Z,14.98
2023-03-23T21:59:31.244Z,14.82
2023-03-23T22:00:29.748Z,17.60
2023-03-23T22:01:28.233Z,12.73
2023-03-23T22:02:24.983Z,16.42
2023-03-23T22:03:23.625Z,16.70
2023-03-23T22:04:21.047Z,16.75
2023-03-23T22:05:18.009Z,14.40
2023-03-23T22:06:21.037Z,15.48
2023-03-23T22:07:18.108Z,14.75
2023-03-23T22:08:14.709Z,15.60
2023-03-23T22:09:11.788Z,16.35
2023-03-23T22:10:10.327Z,14.52
2023-03-23T22:11:11.789Z,15.25
2023-03-23T22:12:09.365Z,15.40
2023-03-23T22:13:06.591Z,17.83
2023-03-23T22:14:04.282Z,13.38
2023-03-23T22:15:01.103Z,14.15
2023-03-23T22:16:02.574Z,15.70
2023-03-23T22:17:00.527Z,16.45
2023-03-23T22:17:57.200Z,17.60
2023-03-23T22:18:55.453Z,21.55
2023-03-23T22:19:52.277Z,14.50
2023-03-23T22:20:49.273Z,15.90
2023-03-23T22:21:46.572Z,13.50
2023-03-23T22:22:43.169Z,13.73
2023-03-23T22:23:40.837Z,13.77
2023-03-23T22:24:37.464Z,15.02
2023-03-23T22:25:36.208Z,16.85
2023-03-23T22:26:33.294Z,13.60
2023-03-23T22:27:29.926Z,14.95
2023-03-23T22:28:28.570Z,16.55
2023-03-23T22:29:25.524Z,12.63
2023-03-23T22:30:22.563Z,18.25
2023-03-23T22:31:26.492Z,17.67
2023-03-23T22:32:23.454Z,17.08
2023-03-23T22:33:20.233Z,16.48
2023-03-23T22:34:17.228Z,16.65
2023-03-23T22:35:14.052Z,16.65
2023-03-23T22:36:11.259Z,13.68
2023-03-23T22:37:08.362Z,15.85
2023-03-23T22:38:05.143Z,14.90
2023-03-23T22:39:02.455Z,12.70
2023-03-23T22:39:59.416Z,15.35
2023-03-23T22:41:01.221Z,16.55
2023-03-23T22:41:58.091Z,14.68
2023-03-23T22:42:54.848Z,16.92
2023-03-23T22:43:51.586Z,14.35
2023-03-23T22:44:48.244Z,17.35
2023-03-23T22:45:44.956Z,16.33
2023-03-23T22:46:42.240Z,14.65
2023-03-23T22:47:39.178Z,15.65
2023-03-23T22:48:36.181Z,16.05
2023-03-23T22:49:32.863Z,18.92
2023-03-23T22:50:29.618Z,16.52
2023-03-23T22:51:26.389Z,20.25
2023-03-23T22:52:23.010Z,14.63
2023-03-23T22:53:20.938Z,17.75
2023-03-23T22:54:17.600Z,16.35
2023-03-23T22:55:14.306Z,15.57
2023-03-23T22:56:12.027Z,17.17
2023-03-23T22:57:08.803Z,19.55
2023-03-23T22:58:05.654Z,18.83
2023-03-23T22:59:02.663Z,16.42
2023-03-23T22:59:59.476Z,16.77
2023-03-23T23:01:12.525Z,19.30
2023-03-23T23:03:07.570Z,14.00
2023-03-23T23:04:04.427Z,16.15
2023-03-23T23:05:01.082Z,17.25
2023-03-23T23:05:58.980Z,15.55
2023-03-23T23:07:06.459Z,15.57
2023-03-23T23:08:14.147Z,17.92
2023-03-23T23:09:12.051Z,14.75
2023-03-23T23:10:09.589Z,17.70
2023-03-23T23:11:06.928Z,17.83
2023-03-23T23:12:03.689Z,17.92
2023-03-23T23:13:00.612Z,22.02
2023-03-23T23:13:57.305Z,17.88
2023-03-23T23:14:53.962Z,15.35
2023-03-23T23:15:53.106Z,18.75
2023-03-23T23:16:49.731Z,18.08
2023-03-23T23:17:47.111Z,18.05
2023-03-23T23:18:46.542Z,16.38
2023-03-23T23:19:43.488Z,17.45
2023-03-23T23:20:41.089Z,18.40
2023-03-23T23:21:37.710Z,17.08
2023-03-23T23:22:34.408Z,14.98
2023-03-23T23:23:31.736Z,19.75
2023-03-23T23:24:29.471Z,17.00
2023-03-23T23:25:26.226Z,14.50
2023-03-23T23:26:23.315Z,16.42
2023-03-23T23:27:20.030Z,16.30
2023-03-23T23:28:17.544Z,18.27
2023-03-23T23:29:14.098Z,18.27
2023-03-23T23:30:12.576Z,22.65
2023-03-23T23:31:22.657Z,19.23
2023-03-23T23:32:19.451Z,19.70
2023-03-23T23:33:16.160Z,16.27
2023-03-23T23:34:13.908Z,16.58
2023-03-23T23:35:12.840Z,16.15
2023-03-23T23:36:12.204Z,15.50
2023-03-23T23:37:09.116Z,14.98
2023-03-23T23:38:07.373Z,16.45
2023-03-23T23:39:06.735Z,15.77
2023-03-23T23:40:07.726Z,20.25
2023-03-23T23:41:04.596Z,19.23
2023-03-23T23:42:01.638Z,17.52
2023-03-23T23:42:58.854Z,19.02
2023-03-23T23:43:55.627Z,15.20
2023-03-23T23:44:52.324Z,17.67
2023-03-23T23:45:48.956Z,16.05
2023-03-23T23:46:46.204Z,16.33
2023-03-23T23:47:43.331Z,22.58
2023-03-23T23:48:40.691Z,21.33
2023-03-23T23:49:37.666Z,20.73
2023-03-23T23:50:35.039Z,14.93
2023-03-23T23:51:34.200Z,18.02
2023-03-23T23:52:30.997Z,16.98
2023-03-23T23:53:27.816Z,17.05
2023-03-23T23:54:29.935Z,17.45
2023-03-23T23:55:27.782Z,17.90
2023-03-23T23:56:25.324Z,20.60
2023-03-23T23:57:22.188Z,18.25
2023-03-23T23:58:22.164Z,19.02
2023-03-23T23:59:18.801Z,16.83
